Terminal Aerodrome Forecast
Issued by NWS Mobile, AL

Home | Current Version | Previous Version | Text Only | Print | Product List | Glossary On
Versions: 1 2 3 4 5 6 7 8 9 10 11 12 13 14
000
FTUS44 KMOB 221750
TAFPNS
TAF
KPNS 221750Z 2218/2318 16010KT P6SM VCSH BKN019
     FM222100 16009KT 5SM -TSRA BKN030CB
     FM230000 21007KT 5SM TSRA BR BKN020CB
     FM230400 20008KT 5SM TSRA BR BKN010CB
      TEMPO 2306/2310 2SM +TSRA BKN010CB=

USA.gov is the U.S. government's official web portal to all federal, state and local government web resources and services.